sensor_id;sensor_type;location;lat;lon;timestamp;temperature;humidity
10566;DHT22;5331;48.148;16.326;2024-03-17T00:01:38;10.80;1.00
10566;DHT22;5331;48.148;16.326;2024-03-17T00:21:53;10.80;1.00
10566;DHT22;5331;48.148;16.326;2024-03-17T00:24:20;10.50;1.00
10566;DHT22;5331;48.148;16.326;2024-03-17T00:26:46;10.50;1.00
10566;DHT22;5331;48.148;16.326;2024-03-17T00:29:13;10.40;1.00
10566;DHT22;5331;48.148;16.326;2024-03-17T00:31:40;10.40;1.00
10566;DHT22;5331;48.148;16.326;2024-03-17T00:34:06;10.30;1.00
10566;DHT22;5331;48.148;16.326;2024-03-17T00:36:32;10.30;1.00
10566;DHT22;5331;48.148;16.326;2024-03-17T00:52:07;10.40;1.00
10566;DHT22;5331;48.148;16.326;2024-03-17T00:54:42;10.20;1.00
10566;DHT22;5331;48.148;16.326;2024-03-17T00:57:08;10.10;1.00
10566;DHT22;5331;48.148;16.326;2024-03-17T00:59:34;10.10;1.00
10566;DHT22;5331;48.148;16.326;2024-03-17T01:02:00;10.10;1.00
10566;DHT22;5331;48.148;16.326;2024-03-17T01:04:27;10.20;1.00
10566;DHT22;5331;48.148;16.326;2024-03-17T01:06:54;10.10;1.00
10566;DHT22;5331;48.148;16.326;2024-03-17T01:09:21;10.10;1.00
10566;DHT22;5331;48.148;16.326;2024-03-17T01:27:14;10.50;1.00
10566;DHT22;5331;48.148;16.326;2024-03-17T01:29:41;10.50;1.00
10566;DHT22;5331;48.148;16.326;2024-03-17T01:32:07;10.40;1.00
10566;DHT22;5331;48.148;16.326;2024-03-17T01:34:33;10.50;1.00
10566;DHT22;5331;48.148;16.326;2024-03-17T01:37:00;10.40;1.00
10566;DHT22;5331;48.148;16.326;2024-03-17T01:39:26;10.50;1.00
10566;DHT22;5331;48.148;16.326;2024-03-17T01:41:52;10.40;1.00
10566;DHT22;5331;48.148;16.326;2024-03-17T01:44:24;10.40;1.00
10566;DHT22;5331;48.148;16.326;2024-03-17T02:02:18;10.70;1.00
10566;DHT22;5331;48.148;16.326;2024-03-17T02:04:44;10.50;1.00
10566;DHT22;5331;48.148;16.326;2024-03-17T02:07:10;10.50;1.00
10566;DHT22;5331;48.148;16.326;2024-03-17T02:09:36;10.40;1.00
10566;DHT22;5331;48.148;16.326;2024-03-17T02:12:02;10.30;1.00
10566;DHT22;5331;48.148;16.326;2024-03-17T02:14:28;10.20;1.00
10566;DHT22;5331;48.148;16.326;2024-03-17T02:16:54;10.20;1.00
10566;DHT22;5331;48.148;16.326;2024-03-17T02:19:21;10.10;1.00
10566;DHT22;5331;48.148;16.326;2024-03-17T02:39:41;9.90;1.00
10566;DHT22;5331;48.148;16.326;2024-03-17T02:42:08;9.70;1.00
10566;DHT22;5331;48.148;16.326;2024-03-17T02:44:36;9.50;1.00
10566;DHT22;5331;48.148;16.326;2024-03-17T02:47:03;9.40;1.00
10566;DHT22;5331;48.148;16.326;2024-03-17T02:49:31;9.40;1.00
10566;DHT22;5331;48.148;16.326;2024-03-17T02:52:05;9.30;1.00
10566;DHT22;5331;48.148;16.326;2024-03-17T02:54:35;9.10;1.00
10566;DHT22;5331;48.148;16.326;2024-03-17T03:12:27;9.00;1.00
10566;DHT22;5331;48.148;16.326;2024-03-17T03:14:54;8.90;1.00
10566;DHT22;5331;48.148;16.326;2024-03-17T03:17:20;8.80;1.00
10566;DHT22;5331;48.148;16.326;2024-03-17T03:19:46;8.70;1.00
10566;DHT22;5331;48.148;16.326;2024-03-17T03:22:12;8.60;1.00
10566;DHT22;5331;48.148;16.326;2024-03-17T03:24:38;8.60;1.00
10566;DHT22;5331;48.148;16.326;2024-03-17T03:27:05;8.60;1.00
10566;DHT22;5331;48.148;16.326;2024-03-17T03:47:23;8.90;1.00
10566;DHT22;5331;48.148;16.326;2024-03-17T03:49:49;8.70;1.00
10566;DHT22;5331;48.148;16.326;2024-03-17T03:52:15;8.60;1.00
10566;DHT22;5331;48.148;16.326;2024-03-17T03:54:41;8.50;1.00
10566;DHT22;5331;48.148;16.326;2024-03-17T03:57:07;8.50;1.00
10566;DHT22;5331;48.148;16.326;2024-03-17T03:59:34;8.60;1.00
10566;DHT22;5331;48.148;16.326;2024-03-17T04:02:00;8.50;1.00
10566;DHT22;5331;48.148;16.326;2024-03-17T04:17:28;8.80;1.00
10566;DHT22;5331;48.148;16.326;2024-03-17T04:19:54;8.70;1.00
10566;DHT22;5331;48.148;16.326;2024-03-17T04:22:21;8.50;1.00
10566;DHT22;5331;48.148;16.326;2024-03-17T04:24:48;8.30;1.00
10566;DHT22;5331;48.148;16.326;2024-03-17T04:27:19;8.30;1.00
10566;DHT22;5331;48.148;16.326;2024-03-17T04:29:46;8.30;1.00
10566;DHT22;5331;48.148;16.326;2024-03-17T04:32:13;8.40;1.00
10566;DHT22;5331;48.148;16.326;2024-03-17T04:52:04;8.20;1.00
10566;DHT22;5331;48.148;16.326;2024-03-17T04:54:31;8.10;1.00
10566;DHT22;5331;48.148;16.326;2024-03-17T04:56:57;8.00;1.00
10566;DHT22;5331;48.148;16.326;2024-03-17T04:59:24;8.00;1.00
10566;DHT22;5331;48.148;16.326;2024-03-17T05:01:50;8.00;1.00
10566;DHT22;5331;48.148;16.326;2024-03-17T05:04:17;8.00;1.00
10566;DHT22;5331;48.148;16.326;2024-03-17T05:06:43;8.00;1.00
10566;DHT22;5331;48.148;16.326;2024-03-17T05:23:08;8.10;1.00
10566;DHT22;5331;48.148;16.326;2024-03-17T05:25:36;7.90;1.00
10566;DHT22;5331;48.148;16.326;2024-03-17T05:28:03;7.80;1.00
10566;DHT22;5331;48.148;16.326;2024-03-17T05:30:29;7.80;1.00
10566;DHT22;5331;48.148;16.326;2024-03-17T05:32:56;7.70;1.00
10566;DHT22;5331;48.148;16.326;2024-03-17T05:35:22;7.70;1.00
10566;DHT22;5331;48.148;16.326;2024-03-17T05:37:50;7.60;1.00
10566;DHT22;5331;48.148;16.326;2024-03-17T05:40:17;7.70;1.00
10566;DHT22;5331;48.148;16.326;2024-03-17T06:00:36;8.10;1.00
10566;DHT22;5331;48.148;16.326;2024-03-17T06:03:03;8.10;1.00
10566;DHT22;5331;48.148;16.326;2024-03-17T06:05:31;8.00;1.00
10566;DHT22;5331;48.148;16.326;2024-03-17T06:07:58;8.00;1.00
10566;DHT22;5331;48.148;16.326;2024-03-17T06:10:24;8.00;1.00
10566;DHT22;5331;48.148;16.326;2024-03-17T06:12:52;8.00;1.00
10566;DHT22;5331;48.148;16.326;2024-03-17T06:15:18;8.00;1.00
10566;DHT22;5331;48.148;16.326;2024-03-17T06:35:35;8.00;1.00
10566;DHT22;5331;48.148;16.326;2024-03-17T06:38:01;8.30;1.00
10566;DHT22;5331;48.148;16.326;2024-03-17T06:40:28;8.40;1.00
10566;DHT22;5331;48.148;16.326;2024-03-17T06:42:54;8.50;1.00
10566;DHT22;5331;48.148;16.326;2024-03-17T06:45:20;8.70;1.00
10566;DHT22;5331;48.148;16.326;2024-03-17T06:47:46;8.70;1.00
10566;DHT22;5331;48.148;16.326;2024-03-17T06:50:13;8.70;1.00
10566;DHT22;5331;48.148;16.326;2024-03-17T07:10:37;9.20;1.00
10566;DHT22;5331;48.148;16.326;2024-03-17T07:13:03;9.10;1.00
10566;DHT22;5331;48.148;16.326;2024-03-17T07:15:29;9.00;1.00
10566;DHT22;5331;48.148;16.326;2024-03-17T07:17:55;9.00;1.00
10566;DHT22;5331;48.148;16.326;2024-03-17T07:20:22;9.00;1.00
10566;DHT22;5331;48.148;16.326;2024-03-17T07:22:48;9.10;1.00
10566;DHT22;5331;48.148;16.326;2024-03-17T07:25:15;9.10;1.00
10566;DHT22;5331;48.148;16.326;2024-03-17T07:27:43;9.20;1.00
10566;DHT22;5331;48.148;16.326;2024-03-17T07:45:35;10.50;1.00
10566;DHT22;5331;48.148;16.326;2024-03-17T07:48:21;10.50;1.00
10566;DHT22;5331;48.148;16.326;2024-03-17T07:50:59;10.50;1.00
10566;DHT22;5331;48.148;16.326;2024-03-17T07:53:26;10.50;1.00
10566;DHT22;5331;48.148;16.326;2024-03-17T07:56:00;10.40;1.00
10566;DHT22;5331;48.148;16.326;2024-03-17T07:58:26;10.20;1.00
10566;DHT22;5331;48.148;16.326;2024-03-17T08:00:57;10.10;1.00
10566;DHT22;5331;48.148;16.326;2024-03-17T08:16:27;10.50;1.00
10566;DHT22;5331;48.148;16.326;2024-03-17T08:18:55;10.40;1.00
10566;DHT22;5331;48.148;16.326;2024-03-17T08:21:21;10.40;1.00
10566;DHT22;5331;48.148;16.326;2024-03-17T08:23:47;10.40;1.00
10566;DHT22;5331;48.148;16.326;2024-03-17T08:26:14;10.40;1.00
10566;DHT22;5331;48.148;16.326;2024-03-17T08:28:40;10.40;1.00
10566;DHT22;5331;48.148;16.326;2024-03-17T08:31:06;10.50;1.00
10566;DHT22;5331;48.148;16.326;2024-03-17T08:47:51;10.90;1.00
10566;DHT22;5331;48.148;16.326;2024-03-17T08:50:17;10.60;1.00
10566;DHT22;5331;48.148;16.326;2024-03-17T08:52:44;10.60;1.00
10566;DHT22;5331;48.148;16.326;2024-03-17T08:55:10;10.50;1.00
10566;DHT22;5331;48.148;16.326;2024-03-17T08:57:39;10.60;1.00
10566;DHT22;5331;48.148;16.326;2024-03-17T09:00:07;10.70;1.00
10566;DHT22;5331;48.148;16.326;2024-03-17T09:02:34;10.80;1.00
10566;DHT22;5331;48.148;16.326;2024-03-17T09:18:20;11.50;1.00
10566;DHT22;5331;48.148;16.326;2024-03-17T09:20:46;11.60;1.00
10566;DHT22;5331;48.148;16.326;2024-03-17T09:23:20;11.80;1.00
10566;DHT22;5331;48.148;16.326;2024-03-17T09:25:57;12.20;1.00
10566;DHT22;5331;48.148;16.326;2024-03-17T09:28:24;12.80;1.00
10566;DHT22;5331;48.148;16.326;2024-03-17T09:30:50;13.50;1.00
10566;DHT22;5331;48.148;16.326;2024-03-17T09:33:19;13.50;1.00
10566;DHT22;5331;48.148;16.326;2024-03-17T09:48:59;14.50;1.00
10566;DHT22;5331;48.148;16.326;2024-03-17T09:51:26;14.40;1.00
10566;DHT22;5331;48.148;16.326;2024-03-17T09:53:53;14.40;1.00
10566;DHT22;5331;48.148;16.326;2024-03-17T09:56:21;14.40;1.00
10566;DHT22;5331;48.148;16.326;2024-03-17T09:58:48;14.20;1.00
10566;DHT22;5331;48.148;16.326;2024-03-17T10:01:15;13.60;1.00
10566;DHT22;5331;48.148;16.326;2024-03-17T10:03:42;13.60;1.00
10566;DHT22;5331;48.148;16.326;2024-03-17T10:19:23;13.40;1.00
10566;DHT22;5331;48.148;16.326;2024-03-17T10:21:57;13.20;1.00
10566;DHT22;5331;48.148;16.326;2024-03-17T10:24:26;13.30;1.00
10566;DHT22;5331;48.148;16.326;2024-03-17T10:26:56;13.40;1.00
10566;DHT22;5331;48.148;16.326;2024-03-17T10:29:32;13.50;1.00
10566;DHT22;5331;48.148;16.326;2024-03-17T10:32:03;13.60;1.00
10566;DHT22;5331;48.148;16.326;2024-03-17T10:34:31;13.60;1.00
10566;DHT22;5331;48.148;16.326;2024-03-17T10:50:59;14.20;1.00
10566;DHT22;5331;48.148;16.326;2024-03-17T10:53:28;14.30;1.00
10566;DHT22;5331;48.148;16.326;2024-03-17T10:56:03;14.60;1.00
10566;DHT22;5331;48.148;16.326;2024-03-17T10:58:34;14.70;1.00
10566;DHT22;5331;48.148;16.326;2024-03-17T11:01:01;14.80;1.00
10566;DHT22;5331;48.148;16.326;2024-03-17T11:03:31;14.60;1.00
10566;DHT22;5331;48.148;16.326;2024-03-17T11:09:30;14.00;1.00
10566;DHT22;5331;48.148;16.326;2024-03-17T11:27:41;14.40;1.00
10566;DHT22;5331;48.148;16.326;2024-03-17T11:36:36;14.80;1.00
10566;DHT22;5331;48.148;16.326;2024-03-17T11:39:04;14.90;1.00
10566;DHT22;5331;48.148;16.326;2024-03-17T11:41:36;14.70;1.00
10566;DHT22;5331;48.148;16.326;2024-03-17T11:59:49;15.00;1.00
10566;DHT22;5331;48.148;16.326;2024-03-17T12:02:18;15.30;1.00
10566;DHT22;5331;48.148;16.326;2024-03-17T12:04:44;15.40;1.00
10566;DHT22;5331;48.148;16.326;2024-03-17T12:07:13;15.40;1.00
10566;DHT22;5331;48.148;16.326;2024-03-17T12:09:41;15.40;1.00
10566;DHT22;5331;48.148;16.326;2024-03-17T12:12:23;15.20;1.00
10566;DHT22;5331;48.148;16.326;2024-03-17T12:14:51;15.10;1.00
10566;DHT22;5331;48.148;16.326;2024-03-17T12:17:22;15.10;1.00
10566;DHT22;5331;48.148;16.326;2024-03-17T12:37:43;15.30;1.00
10566;DHT22;5331;48.148;16.326;2024-03-17T12:40:18;14.80;1.00
10566;DHT22;5331;48.148;16.326;2024-03-17T12:42:48;14.90;1.00
10566;DHT22;5331;48.148;16.326;2024-03-17T12:45:19;15.00;1.00
10566;DHT22;5331;48.148;16.326;2024-03-17T12:47:47;15.00;1.00
10566;DHT22;5331;48.148;16.326;2024-03-17T12:50:13;15.10;1.00
10566;DHT22;5331;48.148;16.326;2024-03-17T12:52:43;15.30;1.00
10566;DHT22;5331;48.148;16.326;2024-03-17T13:11:04;15.70;1.00
10566;DHT22;5331;48.148;16.326;2024-03-17T13:13:35;15.50;1.00
10566;DHT22;5331;48.148;16.326;2024-03-17T13:16:01;15.30;1.00
10566;DHT22;5331;48.148;16.326;2024-03-17T13:18:27;15.20;1.00
10566;DHT22;5331;48.148;16.326;2024-03-17T13:20:53;15.20;1.00
10566;DHT22;5331;48.148;16.326;2024-03-17T13:23:20;15.20;1.00
10566;DHT22;5331;48.148;16.326;2024-03-17T13:25:47;15.20;1.00
10566;DHT22;5331;48.148;16.326;2024-03-17T13:43:40;15.00;1.00
10566;DHT22;5331;48.148;16.326;2024-03-17T13:46:06;15.00;1.00
10566;DHT22;5331;48.148;16.326;2024-03-17T13:48:33;15.00;1.00
10566;DHT22;5331;48.148;16.326;2024-03-17T13:51:01;14.90;1.00
10566;DHT22;5331;48.148;16.326;2024-03-17T13:53:29;14.90;1.00
10566;DHT22;5331;48.148;16.326;2024-03-17T13:55:55;14.90;1.00
10566;DHT22;5331;48.148;16.326;2024-03-17T13:58:22;14.80;1.00
10566;DHT22;5331;48.148;16.326;2024-03-17T14:16:16;14.70;1.00
10566;DHT22;5331;48.148;16.326;2024-03-17T14:18:42;14.60;1.00
10566;DHT22;5331;48.148;16.326;2024-03-17T14:21:09;14.60;1.00
10566;DHT22;5331;48.148;16.326;2024-03-17T14:23:35;14.40;1.00
10566;DHT22;5331;48.148;16.326;2024-03-17T14:26:03;14.40;1.00
10566;DHT22;5331;48.148;16.326;2024-03-17T14:28:30;14.40;1.00
10566;DHT22;5331;48.148;16.326;2024-03-17T14:30:56;14.40;1.00
10566;DHT22;5331;48.148;16.326;2024-03-17T14:46:21;14.40;1.00
10566;DHT22;5331;48.148;16.326;2024-03-17T14:48:47;14.20;1.00
10566;DHT22;5331;48.148;16.326;2024-03-17T14:51:16;14.20;1.00
10566;DHT22;5331;48.148;16.326;2024-03-17T14:53:42;14.20;1.00
10566;DHT22;5331;48.148;16.326;2024-03-17T14:56:14;14.20;1.00
10566;DHT22;5331;48.148;16.326;2024-03-17T14:58:41;14.20;1.00
10566;DHT22;5331;48.148;16.326;2024-03-17T15:01:07;14.20;1.00
10566;DHT22;5331;48.148;16.326;2024-03-17T15:19:02;14.40;1.00
10566;DHT22;5331;48.148;16.326;2024-03-17T15:21:28;14.20;1.00
10566;DHT22;5331;48.148;16.326;2024-03-17T15:23:55;14.20;1.00
10566;DHT22;5331;48.148;16.326;2024-03-17T15:26:21;14.10;1.00
10566;DHT22;5331;48.148;16.326;2024-03-17T15:28:48;14.00;1.00
10566;DHT22;5331;48.148;16.326;2024-03-17T15:31:14;13.90;1.00
10566;DHT22;5331;48.148;16.326;2024-03-17T15:33:40;13.80;1.00
10566;DHT22;5331;48.148;16.326;2024-03-17T15:49:32;13.90;1.00
10566;DHT22;5331;48.148;16.326;2024-03-17T15:51:58;13.80;1.00
10566;DHT22;5331;48.148;16.326;2024-03-17T15:54:24;13.70;1.00
10566;DHT22;5331;48.148;16.326;2024-03-17T15:56:51;13.70;1.00
10566;DHT22;5331;48.148;16.326;2024-03-17T15:59:17;13.60;1.00
10566;DHT22;5331;48.148;16.326;2024-03-17T16:01:44;13.50;1.00
10566;DHT22;5331;48.148;16.326;2024-03-17T16:04:11;13.40;1.00
10566;DHT22;5331;48.148;16.326;2024-03-17T16:23:32;13.10;1.00
10566;DHT22;5331;48.148;16.326;2024-03-17T16:26:00;12.90;1.00
10566;DHT22;5331;48.148;16.326;2024-03-17T16:28:27;12.80;1.00
10566;DHT22;5331;48.148;16.326;2024-03-17T16:30:55;12.70;1.00
10566;DHT22;5331;48.148;16.326;2024-03-17T16:33:22;12.70;1.00
10566;DHT22;5331;48.148;16.326;2024-03-17T16:35:49;12.60;1.00
10566;DHT22;5331;48.148;16.326;2024-03-17T16:53:50;12.20;1.00
10566;DHT22;5331;48.148;16.326;2024-03-17T16:56:17;11.90;1.00
10566;DHT22;5331;48.148;16.326;2024-03-17T16:58:44;11.90;1.00
10566;DHT22;5331;48.148;16.326;2024-03-17T17:01:12;11.70;1.00
10566;DHT22;5331;48.148;16.326;2024-03-17T17:03:38;11.70;1.00
10566;DHT22;5331;48.148;16.326;2024-03-17T17:06:05;11.70;1.00
10566;DHT22;5331;48.148;16.326;2024-03-17T17:08:32;11.60;1.00
10566;DHT22;5331;48.148;16.326;2024-03-17T17:11:01;11.50;1.00
10566;DHT22;5331;48.148;16.326;2024-03-17T17:29:04;11.20;1.00
10566;DHT22;5331;48.148;16.326;2024-03-17T17:31:31;11.00;1.00
10566;DHT22;5331;48.148;16.326;2024-03-17T17:33:59;10.90;1.00
10566;DHT22;5331;48.148;16.326;2024-03-17T17:36:26;10.80;1.00
10566;DHT22;5331;48.148;16.326;2024-03-17T17:38:53;10.80;1.00
10566;DHT22;5331;48.148;16.326;2024-03-17T17:41:20;10.70;1.00
10566;DHT22;5331;48.148;16.326;2024-03-17T17:43:48;10.70;1.00
10566;DHT22;5331;48.148;16.326;2024-03-17T18:19:29;10.30;1.00
10566;DHT22;5331;48.148;16.326;2024-03-17T18:21:55;10.10;1.00
10566;DHT22;5331;48.148;16.326;2024-03-17T18:24:21;10.00;1.00
10566;DHT22;5331;48.148;16.326;2024-03-17T18:26:47;9.90;1.00
10566;DHT22;5331;48.148;16.326;2024-03-17T18:29:14;9.70;1.00
10566;DHT22;5331;48.148;16.326;2024-03-17T18:31:40;9.60;1.00
10566;DHT22;5331;48.148;16.326;2024-03-17T18:34:06;9.50;1.00
10566;DHT22;5331;48.148;16.326;2024-03-17T18:52:00;9.10;1.00
10566;DHT22;5331;48.148;16.326;2024-03-17T18:54:27;8.90;1.00
10566;DHT22;5331;48.148;16.326;2024-03-17T18:56:53;8.80;1.00
10566;DHT22;5331;48.148;16.326;2024-03-17T18:59:19;8.70;1.00
10566;DHT22;5331;48.148;16.326;2024-03-17T19:01:45;8.60;1.00
10566;DHT22;5331;48.148;16.326;2024-03-17T19:04:12;8.60;1.00
10566;DHT22;5331;48.148;16.326;2024-03-17T19:06:39;8.60;1.00
10566;DHT22;5331;48.148;16.326;2024-03-17T19:22:08;8.80;1.00
10566;DHT22;5331;48.148;16.326;2024-03-17T19:24:34;8.60;1.00
10566;DHT22;5331;48.148;16.326;2024-03-17T19:27:01;8.60;1.00
10566;DHT22;5331;48.148;16.326;2024-03-17T19:29:29;8.50;1.00
10566;DHT22;5331;48.148;16.326;2024-03-17T19:31:56;8.50;1.00
10566;DHT22;5331;48.148;16.326;2024-03-17T19:34:22;8.50;1.00
10566;DHT22;5331;48.148;16.326;2024-03-17T19:36:49;8.50;1.00
10566;DHT22;5331;48.148;16.326;2024-03-17T19:39:16;8.40;1.00
10566;DHT22;5331;48.148;16.326;2024-03-17T20:25:14;7.90;1.00
10566;DHT22;5331;48.148;16.326;2024-03-17T20:27:40;7.80;1.00
10566;DHT22;5331;48.148;16.326;2024-03-17T20:30:08;7.80;1.00
10566;DHT22;5331;48.148;16.326;2024-03-17T20:32:35;7.70;1.00
10566;DHT22;5331;48.148;16.326;2024-03-17T20:35:03;7.70;1.00
10566;DHT22;5331;48.148;16.326;2024-03-17T20:37:29;7.70;1.00
10566;DHT22;5331;48.148;16.326;2024-03-17T20:39:56;7.60;1.00
10566;DHT22;5331;48.148;16.326;2024-03-17T20:42:24;7.60;1.00
10566;DHT22;5331;48.148;16.326;2024-03-17T20:57:58;7.70;1.00
10566;DHT22;5331;48.148;16.326;2024-03-17T21:00:24;7.60;1.00
10566;DHT22;5331;48.148;16.326;2024-03-17T21:02:53;7.50;1.00
10566;DHT22;5331;48.148;16.326;2024-03-17T21:05:20;7.40;1.00
10566;DHT22;5331;48.148;16.326;2024-03-17T21:07:48;7.40;1.00
10566;DHT22;5331;48.148;16.326;2024-03-17T21:10:15;7.40;1.00
10566;DHT22;5331;48.148;16.326;2024-03-17T21:12:42;7.40;1.00
10566;DHT22;5331;48.148;16.326;2024-03-17T21:30:37;7.80;1.00
10566;DHT22;5331;48.148;16.326;2024-03-17T21:33:03;7.60;1.00
10566;DHT22;5331;48.148;16.326;2024-03-17T21:35:30;7.60;1.00
10566;DHT22;5331;48.148;16.326;2024-03-17T21:37:56;7.50;1.00
10566;DHT22;5331;48.148;16.326;2024-03-17T21:40:22;7.50;1.00
10566;DHT22;5331;48.148;16.326;2024-03-17T21:42:49;7.50;1.00
10566;DHT22;5331;48.148;16.326;2024-03-17T21:45:15;7.50;1.00
10566;DHT22;5331;48.148;16.326;2024-03-17T21:47:42;7.50;1.00
10566;DHT22;5331;48.148;16.326;2024-03-17T22:03:12;7.80;1.00
10566;DHT22;5331;48.148;16.326;2024-03-17T22:05:38;7.70;1.00
10566;DHT22;5331;48.148;16.326;2024-03-17T22:08:05;7.70;1.00
10566;DHT22;5331;48.148;16.326;2024-03-17T22:10:31;7.70;1.00
10566;DHT22;5331;48.148;16.326;2024-03-17T22:12:57;7.70;1.00
10566;DHT22;5331;48.148;16.326;2024-03-17T22:15:24;7.70;1.00
10566;DHT22;5331;48.148;16.326;2024-03-17T22:17:50;7.70;1.00
10566;DHT22;5331;48.148;16.326;2024-03-17T22:37:38;8.00;1.00
10566;DHT22;5331;48.148;16.326;2024-03-17T22:40:06;7.80;1.00
10566;DHT22;5331;48.148;16.326;2024-03-17T22:42:32;7.80;1.00
10566;DHT22;5331;48.148;16.326;2024-03-17T22:44:58;7.80;1.00
10566;DHT22;5331;48.148;16.326;2024-03-17T22:47:24;7.80;1.00
10566;DHT22;5331;48.148;16.326;2024-03-17T22:49:50;7.70;1.00
10566;DHT22;5331;48.148;16.326;2024-03-17T22:52:17;7.70;1.00
10566;DHT22;5331;48.148;16.326;2024-03-17T23:12:31;7.70;1.00
10566;DHT22;5331;48.148;16.326;2024-03-17T23:14:57;7.60;1.00
10566;DHT22;5331;48.148;16.326;2024-03-17T23:17:23;7.60;1.00
10566;DHT22;5331;48.148;16.326;2024-03-17T23:19:50;7.60;1.00
10566;DHT22;5331;48.148;16.326;2024-03-17T23:22:16;7.50;1.00
10566;DHT22;5331;48.148;16.326;2024-03-17T23:24:42;7.50;1.00
10566;DHT22;5331;48.148;16.326;2024-03-17T23:27:08;7.50;1.00
10566;DHT22;5331;48.148;16.326;2024-03-17T23:42:35;7.60;1.00
10566;DHT22;5331;48.148;16.326;2024-03-17T23:45:03;7.30;1.00
10566;DHT22;5331;48.148;16.326;2024-03-17T23:47:30;7.30;1.00
10566;DHT22;5331;48.148;16.326;2024-03-17T23:49:56;7.10;1.00
10566;DHT22;5331;48.148;16.326;2024-03-17T23:52:22;7.10;1.00
10566;DHT22;5331;48.148;16.326;2024-03-17T23:54:48;7.10;1.00
10566;DHT22;5331;48.148;16.326;2024-03-17T23:57:14;7.00;1.00
